sensor_id;sensor_type;location;lat;lon;timestamp;pressure;altitude;pressure_sealevel;temperature;humidity
43125;BME280;49182;50.788;7.318;2023-03-03T00:00:47;101367.84;;;-2.00;82.36
43125;BME280;49182;50.788;7.318;2023-03-03T00:03:16;101426.69;;;-1.73;82.66
43125;BME280;49182;50.788;7.318;2023-03-03T00:05:44;101426.59;;;-1.68;83.53
43125;BME280;49182;50.788;7.318;2023-03-03T00:08:10;101430.06;;;-1.69;83.78
43125;BME280;49182;50.788;7.318;2023-03-03T00:10:37;101425.91;;;-1.75;84.44
43125;BME280;49182;50.788;7.318;2023-03-03T00:13:12;101449.09;;;-1.72;84.53
43125;BME280;49182;50.788;7.318;2023-03-03T00:15:41;101442.34;;;-1.77;84.53
43125;BME280;49182;50.788;7.318;2023-03-03T00:18:17;101439.84;;;-1.80;83.89
43125;BME280;49182;50.788;7.318;2023-03-03T00:20:49;101436.56;;;-1.88;83.97
43125;BME280;49182;50.788;7.318;2023-03-03T00:23:29;101439.84;;;-1.80;84.57
43125;BME280;49182;50.788;7.318;2023-03-03T00:25:57;101453.44;;;-1.72;85.00
43125;BME280;49182;50.788;7.318;2023-03-03T00:28:27;101442.56;;;-1.86;85.23
43125;BME280;49182;50.788;7.318;2023-03-03T00:30:57;101452.94;;;-1.86;85.17
43125;BME280;49182;50.788;7.318;2023-03-03T00:33:29;101439.59;;;-2.07;85.21
43125;BME280;49182;50.788;7.318;2023-03-03T00:35:58;101432.91;;;-2.17;84.72
43125;BME280;49182;50.788;7.318;2023-03-03T00:38:26;101467.03;;;-2.01;84.26
43125;BME280;49182;50.788;7.318;2023-03-03T00:40:53;101448.31;;;-2.11;84.64
43125;BME280;49182;50.788;7.318;2023-03-03T00:43:21;101458.28;;;-1.95;84.60
43125;BME280;49182;50.788;7.318;2023-03-03T00:45:51;101455.44;;;-1.85;85.55
43125;BME280;49182;50.788;7.318;2023-03-03T00:48:23;101458.19;;;-1.91;85.98
43125;BME280;49182;50.788;7.318;2023-03-03T00:50:51;101460.97;;;-1.98;85.57
43125;BME280;49182;50.788;7.318;2023-03-03T00:53:18;101454.22;;;-2.06;85.61
43125;BME280;49182;50.788;7.318;2023-03-03T00:55:48;101459.53;;;-2.12;85.62
43125;BME280;49182;50.788;7.318;2023-03-03T00:58:16;101466.53;;;-2.17;85.09
43125;BME280;49182;50.788;7.318;2023-03-03T01:00:45;101450.34;;;-2.25;84.76
43125;BME280;49182;50.788;7.318;2023-03-03T01:03:17;101461.38;;;-2.17;84.82
43125;BME280;49182;50.788;7.318;2023-03-03T01:05:44;101449.44;;;-2.24;85.04
43125;BME280;49182;50.788;7.318;2023-03-03T01:08:11;101452.75;;;-2.17;85.04
43125;BME280;49182;50.788;7.318;2023-03-03T01:10:42;101455.50;;;-2.25;84.84
43125;BME280;49182;50.788;7.318;2023-03-03T01:13:10;101446.88;;;-2.25;85.32
43125;BME280;49182;50.788;7.318;2023-03-03T01:15:38;101442.94;;;-2.41;85.19
43125;BME280;49182;50.788;7.318;2023-03-03T01:18:05;101452.34;;;-2.39;85.27
43125;BME280;49182;50.788;7.318;2023-03-03T01:20:33;101462.78;;;-2.42;85.43
43125;BME280;49182;50.788;7.318;2023-03-03T01:23:00;101464.56;;;-2.46;85.04
43125;BME280;49182;50.788;7.318;2023-03-03T01:25:27;101430.34;;;-2.58;85.30
43125;BME280;49182;50.788;7.318;2023-03-03T01:27:54;101420.84;;;-2.58;85.41
43125;BME280;49182;50.788;7.318;2023-03-03T01:30:20;101449.16;;;-2.52;84.87
43125;BME280;49182;50.788;7.318;2023-03-03T01:32:47;101454.47;;;-2.58;85.24
43125;BME280;49182;50.788;7.318;2023-03-03T01:35:14;101463.03;;;-2.54;85.09
43125;BME280;49182;50.788;7.318;2023-03-03T01:37:42;101466.47;;;-2.55;85.68
43125;BME280;49182;50.788;7.318;2023-03-03T01:40:13;101438.34;;;-2.70;85.61
43125;BME280;49182;50.788;7.318;2023-03-03T01:42:40;101448.63;;;-2.66;86.14
43125;BME280;49182;50.788;7.318;2023-03-03T01:45:14;101458.78;;;-2.58;86.59
43125;BME280;49182;50.788;7.318;2023-03-03T01:47:44;101463.25;;;-2.66;86.66
43125;BME280;49182;50.788;7.318;2023-03-03T01:50:13;101465.72;;;-2.60;87.00
43125;BME280;49182;50.788;7.318;2023-03-03T01:52:43;101460.59;;;-2.63;87.68
43125;BME280;49182;50.788;7.318;2023-03-03T01:55:14;101467.47;;;-2.61;87.94
43125;BME280;49182;50.788;7.318;2023-03-03T01:57:47;101458.25;;;-2.75;88.00
43125;BME280;49182;50.788;7.318;2023-03-03T02:00:18;101459.13;;;-2.75;87.50
43125;BME280;49182;50.788;7.318;2023-03-03T02:02:45;101455.78;;;-2.80;87.72
43125;BME280;49182;50.788;7.318;2023-03-03T02:05:12;101458.34;;;-2.80;87.36
43125;BME280;49182;50.788;7.318;2023-03-03T02:07:39;101458.50;;;-2.88;87.51
43125;BME280;49182;50.788;7.318;2023-03-03T02:10:12;101451.69;;;-2.92;87.40
43125;BME280;49182;50.788;7.318;2023-03-03T02:12:40;101442.28;;;-2.96;86.96
43125;BME280;49182;50.788;7.318;2023-03-03T02:15:16;101450.09;;;-2.99;86.94
43125;BME280;49182;50.788;7.318;2023-03-03T02:17:43;101449.25;;;-3.01;86.89
43125;BME280;49182;50.788;7.318;2023-03-03T02:20:16;101430.66;;;-3.18;86.89
43125;BME280;49182;50.788;7.318;2023-03-03T02:22:50;101455.34;;;-3.03;86.75
43125;BME280;49182;50.788;7.318;2023-03-03T02:25:25;101465.50;;;-2.94;87.11
43125;BME280;49182;50.788;7.318;2023-03-03T02:27:56;101455.25;;;-2.97;87.45
43125;BME280;49182;50.788;7.318;2023-03-03T02:30:23;101453.56;;;-3.01;87.63
43125;BME280;49182;50.788;7.318;2023-03-03T02:32:50;101451.22;;;-3.13;87.43
43125;BME280;49182;50.788;7.318;2023-03-03T02:35:26;101466.59;;;-3.06;87.47
43125;BME280;49182;50.788;7.318;2023-03-03T02:37:55;101461.44;;;-3.07;87.12
43125;BME280;49182;50.788;7.318;2023-03-03T02:40:27;101479.63;;;-3.13;87.50
43125;BME280;49182;50.788;7.318;2023-03-03T02:42:58;101487.47;;;-3.19;88.10
43125;BME280;49182;50.788;7.318;2023-03-03T02:45:26;101434.59;;;-3.46;88.22
43125;BME280;49182;50.788;7.318;2023-03-03T02:47:53;101409.03;;;-3.60;88.43
43125;BME280;49182;50.788;7.318;2023-03-03T02:50:20;101480.59;;;-3.19;88.67
43125;BME280;49182;50.788;7.318;2023-03-03T02:52:47;101480.66;;;-3.22;88.67
43125;BME280;49182;50.788;7.318;2023-03-03T02:55:13;101479.81;;;-3.24;88.25
43125;BME280;49182;50.788;7.318;2023-03-03T02:57:40;101472.97;;;-3.27;88.24
43125;BME280;49182;50.788;7.318;2023-03-03T03:00:09;101483.22;;;-3.22;88.22
43125;BME280;49182;50.788;7.318;2023-03-03T03:02:36;101485.75;;;-3.19;88.06
43125;BME280;49182;50.788;7.318;2023-03-03T03:05:04;101490.13;;;-3.22;88.29
43125;BME280;49182;50.788;7.318;2023-03-03T03:07:30;101491.03;;;-3.27;88.41
43125;BME280;49182;50.788;7.318;2023-03-03T03:09:57;101497.97;;;-3.29;88.48
43125;BME280;49182;50.788;7.318;2023-03-03T03:12:25;101461.44;;;-3.58;88.67
43125;BME280;49182;50.788;7.318;2023-03-03T03:14:54;101473.44;;;-3.55;88.62
43125;BME280;49182;50.788;7.318;2023-03-03T03:17:22;101485.41;;;-3.50;88.68
43125;BME280;49182;50.788;7.318;2023-03-03T03:19:52;101499.94;;;-3.44;88.41
43125;BME280;49182;50.788;7.318;2023-03-03T03:22:19;101501.72;;;-3.46;87.99
43125;BME280;49182;50.788;7.318;2023-03-03T03:24:45;101464.25;;;-3.72;88.27
43125;BME280;49182;50.788;7.318;2023-03-03T03:27:14;101434.41;;;-3.88;88.33
43125;BME280;49182;50.788;7.318;2023-03-03T03:29:41;101505.19;;;-3.49;88.66
43125;BME280;49182;50.788;7.318;2023-03-03T03:32:08;101496.56;;;-3.48;88.78
43125;BME280;49182;50.788;7.318;2023-03-03T03:34:36;101481.34;;;-3.64;88.90
43125;BME280;49182;50.788;7.318;2023-03-03T03:37:04;101496.78;;;-3.61;88.72
43125;BME280;49182;50.788;7.318;2023-03-03T03:39:31;101494.28;;;-3.66;88.66
43125;BME280;49182;50.788;7.318;2023-03-03T03:41:57;101493.44;;;-3.70;88.71
43125;BME280;49182;50.788;7.318;2023-03-03T03:44:24;101500.31;;;-3.69;88.87
43125;BME280;49182;50.788;7.318;2023-03-03T03:46:52;101496.88;;;-3.68;89.12
43125;BME280;49182;50.788;7.318;2023-03-03T03:49:19;101496.00;;;-3.68;89.14
43125;BME280;49182;50.788;7.318;2023-03-03T03:51:49;101503.75;;;-3.68;89.36
43125;BME280;49182;50.788;7.318;2023-03-03T03:54:19;101513.19;;;-3.65;89.34
43125;BME280;49182;50.788;7.318;2023-03-03T03:56:46;101514.09;;;-3.70;88.96
43125;BME280;49182;50.788;7.318;2023-03-03T03:59:13;101524.47;;;-3.73;89.02
43125;BME280;49182;50.788;7.318;2023-03-03T04:01:39;101524.47;;;-3.74;88.42
43125;BME280;49182;50.788;7.318;2023-03-03T04:04:06;101521.97;;;-3.80;88.88
43125;BME280;49182;50.788;7.318;2023-03-03T04:06:33;101517.78;;;-3.86;88.73
43125;BME280;49182;50.788;7.318;2023-03-03T04:09:03;101523.78;;;-3.87;88.98
43125;BME280;49182;50.788;7.318;2023-03-03T04:11:30;101515.28;;;-3.92;89.25
43125;BME280;49182;50.788;7.318;2023-03-03T04:13:57;101527.28;;;-3.89;89.27
43125;BME280;49182;50.788;7.318;2023-03-03T04:16:25;101522.16;;;-3.91;89.47
43125;BME280;49182;50.788;7.318;2023-03-03T04:18:51;101497.50;;;-4.12;89.65
43125;BME280;49182;50.788;7.318;2023-03-03T04:21:19;101518.66;;;-3.88;89.38
43125;BME280;49182;50.788;7.318;2023-03-03T04:23:49;101516.91;;;-3.86;89.02
43125;BME280;49182;50.788;7.318;2023-03-03T04:26:17;101515.28;;;-3.92;89.26
43125;BME280;49182;50.788;7.318;2023-03-03T04:28:45;101510.28;;;-4.02;89.19
43125;BME280;49182;50.788;7.318;2023-03-03T04:31:12;101487.25;;;-4.19;88.98
43125;BME280;49182;50.788;7.318;2023-03-03T04:33:39;101517.19;;;-4.06;89.01
43125;BME280;49182;50.788;7.318;2023-03-03T04:36:07;101506.91;;;-4.09;88.85
43125;BME280;49182;50.788;7.318;2023-03-03T04:38:34;101518.97;;;-4.10;88.89
43125;BME280;49182;50.788;7.318;2023-03-03T04:41:00;101519.91;;;-4.17;88.91
43125;BME280;49182;50.788;7.318;2023-03-03T04:43:33;101517.22;;;-4.07;89.13
43125;BME280;49182;50.788;7.318;2023-03-03T04:46:00;101509.41;;;-4.03;89.27
43125;BME280;49182;50.788;7.318;2023-03-03T04:48:27;101526.56;;;-4.00;89.21
43125;BME280;49182;50.788;7.318;2023-03-03T04:50:54;101536.06;;;-4.04;89.50
43125;BME280;49182;50.788;7.318;2023-03-03T04:53:21;101548.19;;;-4.09;89.39
43125;BME280;49182;50.788;7.318;2023-03-03T04:55:49;101463.81;;;-4.67;89.41
43125;BME280;49182;50.788;7.318;2023-03-03T04:58:16;101542.16;;;-4.08;89.08
43125;BME280;49182;50.788;7.318;2023-03-03T05:00:44;101531.94;;;-4.17;89.70
43125;BME280;49182;50.788;7.318;2023-03-03T05:03:11;101527.81;;;-4.30;89.77
43125;BME280;49182;50.788;7.318;2023-03-03T05:05:40;101542.34;;;-4.25;90.03
43125;BME280;49182;50.788;7.318;2023-03-03T05:08:06;101542.31;;;-4.23;90.30
43125;BME280;49182;50.788;7.318;2023-03-03T05:10:33;101545.81;;;-4.27;90.66
43125;BME280;49182;50.788;7.318;2023-03-03T05:13:00;101557.00;;;-4.30;90.63
43125;BME280;49182;50.788;7.318;2023-03-03T05:15:27;101534.03;;;-4.50;90.41
43125;BME280;49182;50.788;7.318;2023-03-03T05:17:55;101556.13;;;-4.29;90.56
43125;BME280;49182;50.788;7.318;2023-03-03T05:20:22;101562.06;;;-4.21;90.74
43125;BME280;49182;50.788;7.318;2023-03-03T05:22:49;101538.97;;;-4.30;90.69
43125;BME280;49182;50.788;7.318;2023-03-03T05:25:16;101562.94;;;-4.23;90.78
43125;BME280;49182;50.788;7.318;2023-03-03T05:27:43;101558.72;;;-4.29;91.02
43125;BME280;49182;50.788;7.318;2023-03-03T05:30:11;101568.16;;;-4.29;91.00
43125;BME280;49182;50.788;7.318;2023-03-03T05:32:38;101511.09;;;-4.69;91.24
43125;BME280;49182;50.788;7.318;2023-03-03T05:35:06;101587.00;;;-4.23;90.38
43125;BME280;49182;50.788;7.318;2023-03-03T05:37:33;101587.03;;;-4.26;90.23
43125;BME280;49182;50.788;7.318;2023-03-03T05:40:00;101586.25;;;-4.32;89.91
43125;BME280;49182;50.788;7.318;2023-03-03T05:42:27;101546.16;;;-4.58;89.41
43125;BME280;49182;50.788;7.318;2023-03-03T05:44:53;101573.47;;;-4.41;89.80
43125;BME280;49182;50.788;7.318;2023-03-03T05:47:20;101550.41;;;-4.57;90.05
43125;BME280;49182;50.788;7.318;2023-03-03T05:49:46;101576.91;;;-4.42;90.49
43125;BME280;49182;50.788;7.318;2023-03-03T05:52:14;101581.19;;;-4.41;90.96
43125;BME280;49182;50.788;7.318;2023-03-03T05:54:41;101579.53;;;-4.47;90.84
43125;BME280;49182;50.788;7.318;2023-03-03T05:57:08;101585.56;;;-4.48;90.66
43125;BME280;49182;50.788;7.318;2023-03-03T05:59:34;101584.69;;;-4.47;90.74
43125;BME280;49182;50.788;7.318;2023-03-03T06:02:01;101579.47;;;-4.42;90.07
43125;BME280;49182;50.788;7.318;2023-03-03T06:04:28;101584.63;;;-4.42;90.19
43125;BME280;49182;50.788;7.318;2023-03-03T06:06:54;101593.28;;;-4.46;89.92
43125;BME280;49182;50.788;7.318;2023-03-03T06:09:22;101586.34;;;-4.41;89.68
43125;BME280;49182;50.788;7.318;2023-03-03T06:11:49;101590.72;;;-4.50;89.90
43125;BME280;49182;50.788;7.318;2023-03-03T06:14:15;101594.22;;;-4.54;90.30
43125;BME280;49182;50.788;7.318;2023-03-03T06:16:42;101600.22;;;-4.56;90.88
43125;BME280;49182;50.788;7.318;2023-03-03T06:19:08;101595.06;;;-4.55;90.96
43125;BME280;49182;50.788;7.318;2023-03-03T06:21:35;101603.59;;;-4.48;91.33
43125;BME280;49182;50.788;7.318;2023-03-03T06:24:02;101607.00;;;-4.44;91.26
43125;BME280;49182;50.788;7.318;2023-03-03T06:26:30;101580.44;;;-4.51;91.43
43125;BME280;49182;50.788;7.318;2023-03-03T06:28:57;101588.13;;;-4.46;91.20
43125;BME280;49182;50.788;7.318;2023-03-03T06:31:24;101615.31;;;-4.18;90.97
43125;BME280;49182;50.788;7.318;2023-03-03T06:33:52;101613.63;;;-4.22;91.42
43125;BME280;49182;50.788;7.318;2023-03-03T06:36:19;101612.69;;;-4.14;91.44
43125;BME280;49182;50.788;7.318;2023-03-03T06:38:46;101609.97;;;-4.03;91.51
43125;BME280;49182;50.788;7.318;2023-03-03T06:41:13;101618.44;;;-3.90;91.49
43125;BME280;49182;50.788;7.318;2023-03-03T06:43:41;101617.50;;;-3.86;91.69
43125;BME280;49182;50.788;7.318;2023-03-03T06:46:08;101625.09;;;-3.74;91.39
43125;BME280;49182;50.788;7.318;2023-03-03T06:48:34;101633.53;;;-3.63;91.32
43125;BME280;49182;50.788;7.318;2023-03-03T06:51:02;101634.38;;;-3.59;91.21
43125;BME280;49182;50.788;7.318;2023-03-03T06:53:40;101642.84;;;-3.50;91.26
43125;BME280;49182;50.788;7.318;2023-03-03T06:56:08;101635.94;;;-3.46;91.42
43125;BME280;49182;50.788;7.318;2023-03-03T06:58:35;101648.69;;;-3.36;91.66
43125;BME280;49182;50.788;7.318;2023-03-03T07:01:11;101628.03;;;-3.37;91.51
43125;BME280;49182;50.788;7.318;2023-03-03T07:03:39;101653.50;;;-3.13;91.13
43125;BME280;49182;50.788;7.318;2023-03-03T07:06:15;101659.44;;;-3.06;91.46
43125;BME280;49182;50.788;7.318;2023-03-03T07:09:17;101662.75;;;-2.98;91.14
43125;BME280;49182;50.788;7.318;2023-03-03T07:11:45;101665.25;;;-2.91;91.07
43125;BME280;49182;50.788;7.318;2023-03-03T07:16:59;101667.53;;;-2.74;90.97
43125;BME280;49182;50.788;7.318;2023-03-03T07:19:30;101670.03;;;-2.66;91.39
43125;BME280;49182;50.788;7.318;2023-03-03T07:21:59;101675.03;;;-2.59;91.18
43125;BME280;49182;50.788;7.318;2023-03-03T07:24:29;101661.09;;;-2.49;91.11
43125;BME280;49182;50.788;7.318;2023-03-03T07:26:59;101671.22;;;-2.36;91.05
43125;BME280;49182;50.788;7.318;2023-03-03T07:29:28;101673.69;;;-2.29;90.79
43125;BME280;49182;50.788;7.318;2023-03-03T07:31:57;101659.91;;;-2.31;91.02
43125;BME280;49182;50.788;7.318;2023-03-03T07:34:26;101677.69;;;-2.13;90.70
43125;BME280;49182;50.788;7.318;2023-03-03T07:36:57;101651.00;;;-2.15;91.21
43125;BME280;49182;50.788;7.318;2023-03-03T07:39:30;101679.03;;;-1.92;91.24
43125;BME280;49182;50.788;7.318;2023-03-03T07:42:08;101682.28;;;-1.82;91.10
43125;BME280;49182;50.788;7.318;2023-03-03T07:44:40;101689.03;;;-1.74;90.56
43125;BME280;49182;50.788;7.318;2023-03-03T07:47:17;101690.56;;;-1.65;91.02
43125;BME280;49182;50.788;7.318;2023-03-03T07:49:45;101684.34;;;-1.55;90.46
43125;BME280;49182;50.788;7.318;2023-03-03T07:52:22;101695.28;;;-1.42;90.74
43125;BME280;49182;50.788;7.318;2023-03-03T07:54:49;101694.22;;;-1.34;90.58
43125;BME280;49182;50.788;7.318;2023-03-03T07:57:21;101689.78;;;-1.27;89.96
43125;BME280;49182;50.788;7.318;2023-03-03T07:59:49;101699.84;;;-1.13;89.30
43125;BME280;49182;50.788;7.318;2023-03-03T08:02:32;101702.31;;;-1.07;89.75
43125;BME280;49182;50.788;7.318;2023-03-03T08:05:00;101700.31;;;-0.96;89.49
43125;BME280;49182;50.788;7.318;2023-03-03T08:07:30;101688.09;;;-0.91;88.65
43125;BME280;49182;50.788;7.318;2023-03-03T08:09:58;101691.41;;;-0.85;88.57
43125;BME280;49182;50.788;7.318;2023-03-03T08:12:33;101698.88;;;-0.72;88.68
43125;BME280;49182;50.788;7.318;2023-03-03T08:15:19;101705.63;;;-0.64;88.89
43125;BME280;49182;50.788;7.318;2023-03-03T08:17:49;101689.16;;;-0.63;88.53
43125;BME280;49182;50.788;7.318;2023-03-03T08:20:53;101708.47;;;-0.39;87.99
43125;BME280;49182;50.788;7.318;2023-03-03T08:23:21;101710.13;;;-0.36;88.68
43125;BME280;49182;50.788;7.318;2023-03-03T08:25:49;101712.50;;;-0.27;88.50
43125;BME280;49182;50.788;7.318;2023-03-03T08:28:17;101695.25;;;-0.30;88.91
43125;BME280;49182;50.788;7.318;2023-03-03T08:30:44;101712.00;;;-0.08;88.51
43125;BME280;49182;50.788;7.318;2023-03-03T08:33:13;101692.97;;;-0.08;88.07
43125;BME280;49182;50.788;7.318;2023-03-03T08:35:41;101704.66;;;0.07;88.13
43125;BME280;49182;50.788;7.318;2023-03-03T08:38:08;101690.75;;;0.09;87.97
43125;BME280;49182;50.788;7.318;2023-03-03T08:40:36;101707.53;;;0.28;87.96
43125;BME280;49182;50.788;7.318;2023-03-03T08:43:03;101706.38;;;0.38;88.10
43125;BME280;49182;50.788;7.318;2023-03-03T08:45:30;101703.44;;;0.51;87.59
43125;BME280;49182;50.788;7.318;2023-03-03T08:47:57;101709.25;;;0.60;88.18
43125;BME280;49182;50.788;7.318;2023-03-03T08:50:28;101715.19;;;0.64;87.39
43125;BME280;49182;50.788;7.318;2023-03-03T08:52:55;101717.44;;;0.76;87.14
43125;BME280;49182;50.788;7.318;2023-03-03T08:55:22;101722.31;;;0.87;86.80
43125;BME280;49182;50.788;7.318;2023-03-03T08:57:49;101715.19;;;0.93;86.77
43125;BME280;49182;50.788;7.318;2023-03-03T09:00:17;101718.25;;;1.06;86.51
43125;BME280;49182;50.788;7.318;2023-03-03T09:02:44;101709.28;;;1.16;86.51
43125;BME280;49182;50.788;7.318;2023-03-03T09:05:11;101706.38;;;1.25;85.46
43125;BME280;49182;50.788;7.318;2023-03-03T09:07:40;101724.28;;;1.36;85.69
43125;BME280;49182;50.788;7.318;2023-03-03T09:10:08;101728.47;;;1.40;84.99
43125;BME280;49182;50.788;7.318;2023-03-03T09:12:38;101731.81;;;1.43;84.35
43125;BME280;49182;50.788;7.318;2023-03-03T09:15:15;101735.13;;;1.48;83.98
43125;BME280;49182;50.788;7.318;2023-03-03T09:17:44;101739.88;;;1.62;83.81
43125;BME280;49182;50.788;7.318;2023-03-03T09:20:21;101742.41;;;1.65;83.28
43125;BME280;49182;50.788;7.318;2023-03-03T09:22:50;101740.50;;;1.70;83.25
43125;BME280;49182;50.788;7.318;2023-03-03T09:25:22;101730.94;;;1.71;82.96
43125;BME280;49182;50.788;7.318;2023-03-03T09:27:51;101738.38;;;1.81;82.56
43125;BME280;49182;50.788;7.318;2023-03-03T09:30:32;101736.75;;;1.79;82.36
43125;BME280;49182;50.788;7.318;2023-03-03T09:33:00;101723.75;;;1.79;82.15
43125;BME280;49182;50.788;7.318;2023-03-03T09:35:35;101740.59;;;1.93;81.30
43125;BME280;49182;50.788;7.318;2023-03-03T09:38:20;101746.44;;;2.00;81.83
43125;BME280;49182;50.788;7.318;2023-03-03T09:41:04;101749.00;;;2.01;81.43
43125;BME280;49182;50.788;7.318;2023-03-03T09:43:44;101746.88;;;2.13;80.68
43125;BME280;49182;50.788;7.318;2023-03-03T09:46:22;101710.13;;;1.95;80.42
43125;BME280;49182;50.788;7.318;2023-03-03T09:49:01;101748.31;;;2.21;80.99
43125;BME280;49182;50.788;7.318;2023-03-03T09:51:40;101757.06;;;2.43;78.26
43125;BME280;49182;50.788;7.318;2023-03-03T09:54:21;101758.34;;;2.32;77.45
43125;BME280;49182;50.788;7.318;2023-03-03T09:56:55;101760.06;;;2.33;78.10
43125;BME280;49182;50.788;7.318;2023-03-03T09:59:34;101765.09;;;2.37;78.65
43125;BME280;49182;50.788;7.318;2023-03-03T10:02:27;101759.72;;;2.42;78.99
43125;BME280;49182;50.788;7.318;2023-03-03T10:05:10;101763.56;;;2.57;77.66
43125;BME280;49182;50.788;7.318;2023-03-03T10:07:47;101776.59;;;2.57;78.09
43125;BME280;49182;50.788;7.318;2023-03-03T10:10:30;101743.22;;;2.41;78.03
43125;BME280;49182;50.788;7.318;2023-03-03T10:13:12;101753.56;;;2.44;77.42
43125;BME280;49182;50.788;7.318;2023-03-03T10:15:47;101783.66;;;2.53;77.55
43125;BME280;49182;50.788;7.318;2023-03-03T10:18:24;101781.91;;;2.54;77.32
43125;BME280;49182;50.788;7.318;2023-03-03T10:21:04;101759.84;;;2.39;76.90
43125;BME280;49182;50.788;7.318;2023-03-03T10:26:47;101781.41;;;2.67;76.88
43125;BME280;49182;50.788;7.318;2023-03-03T10:29:45;101786.00;;;2.84;76.33
43125;BME280;49182;50.788;7.318;2023-03-03T10:32:37;101775.13;;;2.96;75.38
43125;BME280;49182;50.788;7.318;2023-03-03T10:35:26;101778.63;;;3.18;74.97
43125;BME280;49182;50.788;7.318;2023-03-03T10:38:11;101724.38;;;2.81;74.61
43125;BME280;49182;50.788;7.318;2023-03-03T10:40:47;101774.13;;;3.22;74.77
43125;BME280;49182;50.788;7.318;2023-03-03T10:43:27;101775.34;;;3.35;73.44
43125;BME280;49182;50.788;7.318;2023-03-03T10:49:00;101768.56;;;3.53;73.02
43125;BME280;49182;50.788;7.318;2023-03-03T10:51:33;101756.66;;;3.67;70.98
43125;BME280;49182;50.788;7.318;2023-03-03T10:54:13;101760.19;;;3.23;71.27
43125;BME280;49182;50.788;7.318;2023-03-03T10:56:48;101769.16;;;3.59;72.12
43125;BME280;49182;50.788;7.318;2023-03-03T10:59:34;101769.06;;;3.62;71.65
43125;BME280;49182;50.788;7.318;2023-03-03T11:02:09;101776.91;;;3.83;70.77
43125;BME280;49182;50.788;7.318;2023-03-03T11:07:47;101759.72;;;3.99;70.68
43125;BME280;49182;50.788;7.318;2023-03-03T11:10:22;101755.53;;;3.95;69.75
43125;BME280;49182;50.788;7.318;2023-03-03T11:12:54;101752.44;;;3.85;70.15
43125;BME280;49182;50.788;7.318;2023-03-03T11:15:36;101775.66;;;4.13;69.61
43125;BME280;49182;50.788;7.318;2023-03-03T11:18:11;101778.19;;;3.94;69.16
43125;BME280;49182;50.788;7.318;2023-03-03T11:20:43;101780.00;;;3.92;69.29
43125;BME280;49182;50.788;7.318;2023-03-03T11:23:27;101784.59;;;4.07;68.46
43125;BME280;49182;50.788;7.318;2023-03-03T11:26:08;101766.50;;;4.23;68.85
43125;BME280;49182;50.788;7.318;2023-03-03T11:28:45;101777.63;;;4.48;68.37
43125;BME280;49182;50.788;7.318;2023-03-03T11:31:20;101763.84;;;4.64;67.34
43125;BME280;49182;50.788;7.318;2023-03-03T11:33:59;101767.03;;;4.70;66.47
43125;BME280;49182;50.788;7.318;2023-03-03T11:36:31;101748.44;;;4.76;66.64
43125;BME280;49182;50.788;7.318;2023-03-03T11:39:02;101719.66;;;4.58;66.16
43125;BME280;49182;50.788;7.318;2023-03-03T11:41:31;101760.28;;;4.85;65.32
43125;BME280;49182;50.788;7.318;2023-03-03T11:44:11;101753.84;;;4.92;65.15
43125;BME280;49182;50.788;7.318;2023-03-03T11:46:45;101739.69;;;5.15;65.96
43125;BME280;49182;50.788;7.318;2023-03-03T11:49:19;101739.34;;;5.22;65.27
43125;BME280;49182;50.788;7.318;2023-03-03T11:51:54;101740.75;;;5.29;65.06
43125;BME280;49182;50.788;7.318;2023-03-03T11:54:31;101738.25;;;5.26;64.46
43125;BME280;49182;50.788;7.318;2023-03-03T11:57:11;101741.66;;;5.28;64.92
43125;BME280;49182;50.788;7.318;2023-03-03T11:59:47;101737.28;;;5.29;64.43
43125;BME280;49182;50.788;7.318;2023-03-03T12:02:42;101729.88;;;5.37;64.37
43125;BME280;49182;50.788;7.318;2023-03-03T12:05:15;101722.03;;;5.37;63.82
43125;BME280;49182;50.788;7.318;2023-03-03T12:07:51;101714.28;;;5.36;65.21
43125;BME280;49182;50.788;7.318;2023-03-03T12:10:27;101716.50;;;5.43;64.56
43125;BME280;49182;50.788;7.318;2023-03-03T12:13:02;101707.97;;;5.57;64.90
43125;BME280;49182;50.788;7.318;2023-03-03T12:15:37;101705.47;;;5.55;64.42
43125;BME280;49182;50.788;7.318;2023-03-03T12:18:22;101705.75;;;5.66;63.31
43125;BME280;49182;50.788;7.318;2023-03-03T12:21:02;101710.50;;;5.94;63.04
43125;BME280;49182;50.788;7.318;2023-03-03T12:23:53;101705.78;;;6.01;62.03
43125;BME280;49182;50.788;7.318;2023-03-03T12:26:27;101706.19;;;6.11;61.73
43125;BME280;49182;50.788;7.318;2023-03-03T12:29:04;101699.66;;;6.18;60.59
43125;BME280;49182;50.788;7.318;2023-03-03T12:31:38;101678.16;;;6.11;60.65
43125;BME280;49182;50.788;7.318;2023-03-03T12:34:18;101689.69;;;5.91;60.95
43125;BME280;49182;50.788;7.318;2023-03-03T12:37:05;101649.41;;;5.75;60.77
43125;BME280;49182;50.788;7.318;2023-03-03T12:39:44;101694.22;;;6.22;61.23
43125;BME280;49182;50.788;7.318;2023-03-03T12:42:23;101694.41;;;6.35;59.99
43125;BME280;49182;50.788;7.318;2023-03-03T12:44:56;101683.50;;;6.42;59.99
43125;BME280;49182;50.788;7.318;2023-03-03T12:47:28;101686.63;;;6.49;60.81
43125;BME280;49182;50.788;7.318;2023-03-03T12:50:13;101666.81;;;6.43;59.61
43125;BME280;49182;50.788;7.318;2023-03-03T12:52:51;101680.50;;;6.66;59.88
43125;BME280;49182;50.788;7.318;2023-03-03T12:55:29;101682.81;;;6.72;59.60
43125;BME280;49182;50.788;7.318;2023-03-03T12:58:03;101677.38;;;6.75;59.04
43125;BME280;49182;50.788;7.318;2023-03-03T13:00:42;101685.94;;;6.78;59.16
43125;BME280;49182;50.788;7.318;2023-03-03T13:03:21;101638.00;;;6.75;58.88
43125;BME280;49182;50.788;7.318;2023-03-03T13:06:05;101673.41;;;6.83;58.48
43125;BME280;49182;50.788;7.318;2023-03-03T13:08:47;101664.25;;;6.90;58.06
43125;BME280;49182;50.788;7.318;2023-03-03T13:11:33;101668.47;;;6.93;57.66
43125;BME280;49182;50.788;7.318;2023-03-03T13:14:10;101653.50;;;6.64;58.56
43125;BME280;49182;50.788;7.318;2023-03-03T13:16:44;101676.63;;;6.88;58.12
43125;BME280;49182;50.788;7.318;2023-03-03T13:19:17;101671.88;;;6.95;58.60
43125;BME280;49182;50.788;7.318;2023-03-03T13:21:52;101669.34;;;7.09;56.99
43125;BME280;49182;50.788;7.318;2023-03-03T13:24:24;101669.50;;;7.06;57.80
43125;BME280;49182;50.788;7.318;2023-03-03T13:26:56;101664.97;;;7.24;58.11